Terminal Aerodrome Forecast
Issued by NWS

Home | Current Version | Previous Version | Text Only | Print | Product List | Glossary On
Versions: 1 2 3 4 5 6 7 8 9 10 11 12 13 14 15 16 17 18 19
000
FTUS41 KBTV 300900 AAA
TAFMPV
TAF AMD
KMPV 300914Z 3009/0106 16005KT P6SM SCT015
      TEMPO 3009/3012 OVC009
     FM301300 16004KT P6SM SCT025 BKN040
     FM010000 VRB03KT P6SM BKN100=

USA.gov is the U.S. government's official web portal to all federal, state and local government web resources and services.